sensor_id;sensor_type;location;lat;lon;timestamp;P1;durP1;ratioP1;P2;durP2;ratioP2
57718;SDS011;43561;50.090;18.522;2023-03-20T00:00:56;48.65;;;21.80;;
57718;SDS011;43561;50.090;18.522;2023-03-20T00:10:58;40.85;;;17.80;;
57718;SDS011;43561;50.090;18.522;2023-03-20T00:21:01;44.75;;;16.65;;
57718;SDS011;43561;50.090;18.522;2023-03-20T00:31:04;37.35;;;15.13;;
57718;SDS011;43561;50.090;18.522;2023-03-20T00:41:19;37.08;;;16.85;;
57718;SDS011;43561;50.090;18.522;2023-03-20T00:51:22;35.85;;;16.17;;
57718;SDS011;43561;50.090;18.522;2023-03-20T01:01:25;30.27;;;17.50;;
57718;SDS011;43561;50.090;18.522;2023-03-20T01:11:27;21.38;;;12.70;;
57718;SDS011;43561;50.090;18.522;2023-03-20T01:21:29;33.50;;;13.18;;
57718;SDS011;43561;50.090;18.522;2023-03-20T01:31:31;34.90;;;17.33;;
57718;SDS011;43561;50.090;18.522;2023-03-20T01:41:33;44.67;;;16.83;;
57718;SDS011;43561;50.090;18.522;2023-03-20T01:51:35;29.30;;;16.10;;
57718;SDS011;43561;50.090;18.522;2023-03-20T02:01:43;35.22;;;13.93;;
57718;SDS011;43561;50.090;18.522;2023-03-20T02:11:46;19.25;;;10.55;;
57718;SDS011;43561;50.090;18.522;2023-03-20T02:53:12;30.85;;;10.68;;
57718;SDS011;43561;50.090;18.522;2023-03-20T03:03:37;20.70;;;10.05;;
57718;SDS011;43561;50.090;18.522;2023-03-20T03:13:51;17.42;;;10.80;;
57718;SDS011;43561;50.090;18.522;2023-03-20T03:23:55;19.00;;;11.15;;
57718;SDS011;43561;50.090;18.522;2023-03-20T03:33:58;20.83;;;11.52;;
57718;SDS011;43561;50.090;18.522;2023-03-20T03:54:21;16.77;;;12.02;;
57718;SDS011;43561;50.090;18.522;2023-03-20T04:04:51;26.83;;;13.63;;
57718;SDS011;43561;50.090;18.522;2023-03-20T04:14:55;19.95;;;11.80;;
57718;SDS011;43561;50.090;18.522;2023-03-20T04:24:58;24.70;;;11.32;;
57718;SDS011;43561;50.090;18.522;2023-03-20T04:35:01;26.95;;;14.10;;
57718;SDS011;43561;50.090;18.522;2023-03-20T04:45:21;26.70;;;12.90;;
57718;SDS011;43561;50.090;18.522;2023-03-20T04:55:23;42.33;;;18.35;;
57718;SDS011;43561;50.090;18.522;2023-03-20T05:05:27;41.80;;;17.20;;
57718;SDS011;43561;50.090;18.522;2023-03-20T05:15:29;42.38;;;19.23;;
57718;SDS011;43561;50.090;18.522;2023-03-20T05:25:53;30.17;;;17.25;;
57718;SDS011;43561;50.090;18.522;2023-03-20T05:35:55;39.33;;;18.15;;
57718;SDS011;43561;50.090;18.522;2023-03-20T05:46:36;38.57;;;20.47;;
57718;SDS011;43561;50.090;18.522;2023-03-20T05:57:07;26.10;;;15.35;;
57718;SDS011;43561;50.090;18.522;2023-03-20T06:07:26;34.80;;;18.80;;
57718;SDS011;43561;50.090;18.522;2023-03-20T06:17:40;46.50;;;20.95;;
57718;SDS011;43561;50.090;18.522;2023-03-20T06:27:42;42.25;;;21.70;;
57718;SDS011;43561;50.090;18.522;2023-03-20T06:37:44;51.33;;;23.50;;
57718;SDS011;43561;50.090;18.522;2023-03-20T06:47:52;54.92;;;23.77;;
57718;SDS011;43561;50.090;18.522;2023-03-20T06:57:54;52.00;;;24.50;;
57718;SDS011;43561;50.090;18.522;2023-03-20T07:07:56;51.17;;;27.10;;
57718;SDS011;43561;50.090;18.522;2023-03-20T07:17:59;51.63;;;27.45;;
57718;SDS011;43561;50.090;18.522;2023-03-20T07:28:01;53.47;;;25.35;;
57718;SDS011;43561;50.090;18.522;2023-03-20T07:38:04;53.47;;;26.75;;
57718;SDS011;43561;50.090;18.522;2023-03-20T07:48:11;42.67;;;26.00;;
57718;SDS011;43561;50.090;18.522;2023-03-20T07:58:13;52.83;;;25.08;;
57718;SDS011;43561;50.090;18.522;2023-03-20T08:08:15;51.30;;;27.88;;
57718;SDS011;43561;50.090;18.522;2023-03-20T08:18:18;64.65;;;27.25;;
57718;SDS011;43561;50.090;18.522;2023-03-20T08:28:20;56.33;;;25.17;;
57718;SDS011;43561;50.090;18.522;2023-03-20T08:38:40;36.15;;;20.33;;
57718;SDS011;43561;50.090;18.522;2023-03-20T08:48:44;43.03;;;23.85;;
57718;SDS011;43561;50.090;18.522;2023-03-20T08:58:46;49.22;;;22.15;;
57718;SDS011;43561;50.090;18.522;2023-03-20T09:08:47;43.63;;;21.20;;
57718;SDS011;43561;50.090;18.522;2023-03-20T09:18:49;47.72;;;23.40;;
57718;SDS011;43561;50.090;18.522;2023-03-20T09:28:51;57.72;;;24.85;;
57718;SDS011;43561;50.090;18.522;2023-03-20T09:38:54;37.17;;;18.63;;
57718;SDS011;43561;50.090;18.522;2023-03-20T09:48:58;47.20;;;20.33;;
57718;SDS011;43561;50.090;18.522;2023-03-20T09:59:16;35.97;;;19.00;;
57718;SDS011;43561;50.090;18.522;2023-03-20T10:09:21;37.28;;;21.38;;
57718;SDS011;43561;50.090;18.522;2023-03-20T10:41:23;36.17;;;18.40;;
57718;SDS011;43561;50.090;18.522;2023-03-20T10:51:34;34.13;;;18.55;;
57718;SDS011;43561;50.090;18.522;2023-03-20T11:01:42;31.95;;;17.20;;
57718;SDS011;43561;50.090;18.522;2023-03-20T11:11:45;32.00;;;18.65;;
57718;SDS011;43561;50.090;18.522;2023-03-20T11:21:56;30.15;;;16.23;;
57718;SDS011;43561;50.090;18.522;2023-03-20T11:32:03;19.95;;;12.90;;
57718;SDS011;43561;50.090;18.522;2023-03-20T11:42:28;25.02;;;13.98;;
57718;SDS011;43561;50.090;18.522;2023-03-20T11:52:32;22.73;;;13.25;;
57718;SDS011;43561;50.090;18.522;2023-03-20T12:02:36;17.08;;;11.95;;
57718;SDS011;43561;50.090;18.522;2023-03-20T12:22:48;16.45;;;11.30;;
57718;SDS011;43561;50.090;18.522;2023-03-20T12:43:53;15.07;;;10.63;;
57718;SDS011;43561;50.090;18.522;2023-03-20T13:04:46;24.73;;;11.98;;
57718;SDS011;43561;50.090;18.522;2023-03-20T13:25:30;20.17;;;14.45;;
57718;SDS011;43561;50.090;18.522;2023-03-20T13:35:58;34.85;;;18.15;;
57718;SDS011;43561;50.090;18.522;2023-03-20T13:46:17;32.30;;;17.23;;
57718;SDS011;43561;50.090;18.522;2023-03-20T14:06:51;31.73;;;17.88;;
57718;SDS011;43561;50.090;18.522;2023-03-20T14:27:29;26.45;;;16.50;;
57718;SDS011;43561;50.090;18.522;2023-03-20T14:48:30;14.77;;;8.77;;
57718;SDS011;43561;50.090;18.522;2023-03-20T14:58:48;22.90;;;11.10;;
57718;SDS011;43561;50.090;18.522;2023-03-20T15:08:53;12.20;;;9.13;;
57718;SDS011;43561;50.090;18.522;2023-03-20T15:19:07;10.60;;;8.40;;
57718;SDS011;43561;50.090;18.522;2023-03-20T15:29:18;13.18;;;8.45;;
57718;SDS011;43561;50.090;18.522;2023-03-20T15:39:21;16.92;;;8.93;;
57718;SDS011;43561;50.090;18.522;2023-03-20T15:49:30;15.70;;;7.25;;
57718;SDS011;43561;50.090;18.522;2023-03-20T15:59:32;12.60;;;6.45;;
57718;SDS011;43561;50.090;18.522;2023-03-20T16:09:41;9.00;;;6.43;;
57718;SDS011;43561;50.090;18.522;2023-03-20T16:19:44;15.95;;;9.95;;
57718;SDS011;43561;50.090;18.522;2023-03-20T16:29:46;18.90;;;11.82;;
57718;SDS011;43561;50.090;18.522;2023-03-20T16:50:22;21.40;;;12.15;;
57718;SDS011;43561;50.090;18.522;2023-03-20T17:00:45;14.02;;;9.10;;
57718;SDS011;43561;50.090;18.522;2023-03-20T17:11:04;38.17;;;22.77;;
57718;SDS011;43561;50.090;18.522;2023-03-20T17:21:12;40.73;;;25.57;;
57718;SDS011;43561;50.090;18.522;2023-03-20T17:31:15;17.08;;;13.35;;
57718;SDS011;43561;50.090;18.522;2023-03-20T17:41:18;12.70;;;7.18;;
57718;SDS011;43561;50.090;18.522;2023-03-20T17:51:21;11.02;;;6.50;;
57718;SDS011;43561;50.090;18.522;2023-03-20T18:01:23;7.78;;;5.35;;
57718;SDS011;43561;50.090;18.522;2023-03-20T18:11:25;11.45;;;8.95;;
57718;SDS011;43561;50.090;18.522;2023-03-20T18:21:28;27.45;;;19.90;;
57718;SDS011;43561;50.090;18.522;2023-03-20T18:31:30;29.73;;;18.20;;
57718;SDS011;43561;50.090;18.522;2023-03-20T18:41:32;32.65;;;17.02;;
57718;SDS011;43561;50.090;18.522;2023-03-20T18:51:34;21.77;;;12.43;;
57718;SDS011;43561;50.090;18.522;2023-03-20T19:01:36;13.95;;;8.93;;
57718;SDS011;43561;50.090;18.522;2023-03-20T19:11:38;33.53;;;21.65;;
57718;SDS011;43561;50.090;18.522;2023-03-20T19:21:40;56.13;;;28.60;;
57718;SDS011;43561;50.090;18.522;2023-03-20T19:31:42;47.67;;;25.85;;
57718;SDS011;43561;50.090;18.522;2023-03-20T19:41:44;44.97;;;25.73;;
57718;SDS011;43561;50.090;18.522;2023-03-20T19:51:46;44.28;;;27.20;;
57718;SDS011;43561;50.090;18.522;2023-03-20T20:01:49;62.28;;;34.45;;
57718;SDS011;43561;50.090;18.522;2023-03-20T20:11:51;52.90;;;26.83;;
57718;SDS011;43561;50.090;18.522;2023-03-20T20:21:53;33.40;;;20.98;;
57718;SDS011;43561;50.090;18.522;2023-03-20T20:32:16;30.08;;;15.82;;
57718;SDS011;43561;50.090;18.522;2023-03-20T20:42:20;56.75;;;22.52;;
57718;SDS011;43561;50.090;18.522;2023-03-20T20:52:22;33.08;;;19.65;;
57718;SDS011;43561;50.090;18.522;2023-03-20T21:02:25;64.60;;;38.65;;
57718;SDS011;43561;50.090;18.522;2023-03-20T21:12:27;56.28;;;29.40;;
57718;SDS011;43561;50.090;18.522;2023-03-20T21:22:40;33.75;;;20.30;;
57718;SDS011;43561;50.090;18.522;2023-03-20T21:32:43;37.85;;;18.48;;
57718;SDS011;43561;50.090;18.522;2023-03-20T21:42:45;21.48;;;12.55;;
57718;SDS011;43561;50.090;18.522;2023-03-20T21:52:47;27.20;;;13.82;;
57718;SDS011;43561;50.090;18.522;2023-03-20T22:03:09;43.03;;;27.17;;
57718;SDS011;43561;50.090;18.522;2023-03-20T22:13:31;56.15;;;25.63;;
57718;SDS011;43561;50.090;18.522;2023-03-20T22:23:52;60.42;;;24.42;;
57718;SDS011;43561;50.090;18.522;2023-03-20T22:34:15;52.20;;;26.20;;
57718;SDS011;43561;50.090;18.522;2023-03-20T22:44:40;54.22;;;29.75;;
57718;SDS011;43561;50.090;18.522;2023-03-20T22:55:03;58.00;;;33.92;;
57718;SDS011;43561;50.090;18.522;2023-03-20T23:05:05;66.75;;;33.75;;
57718;SDS011;43561;50.090;18.522;2023-03-20T23:15:07;59.65;;;29.17;;
57718;SDS011;43561;50.090;18.522;2023-03-20T23:25:09;66.30;;;32.80;;
57718;SDS011;43561;50.090;18.522;2023-03-20T23:35:23;76.72;;;35.03;;
57718;SDS011;43561;50.090;18.522;2023-03-20T23:45:25;80.97;;;35.10;;
57718;SDS011;43561;50.090;18.522;2023-03-20T23:55:28;87.72;;;39.80;;
